Terminal Aerodrome Forecast
Issued by NWS

Home | Current Version | Previous Version | Text Only | Print | Product List | Glossary On
Versions: 1 2 3 4 5 6 7 8 9 10 11 12 13 14 15 16 17 18 19
416
FTUS44 KCRP 272327
TAFALI
TAF
KALI 272327Z 2800/2824 14010KT P6SM SCT040
     FM280500 15007KT P6SM BKN015
      TEMPO 2810/2813 5SM BR
     FM281500 15013G20KT P6SM SCT025 BKN040
     FM282000 14019G28KT P6SM SCT050 BKN250=

USA.gov is the U.S. government's official web portal to all federal, state and local government web resources and services.